sensor_id;sensor_type;location;lat;lon;timestamp;P1;durP1;ratioP1;P2;durP2;ratioP2
37339;SDS011;23223;51.006;7.610;2023-09-07T00:00:29;5.55;;;2.95;;
37339;SDS011;23223;51.006;7.610;2023-09-07T00:02:55;7.20;;;3.65;;
37339;SDS011;23223;51.006;7.610;2023-09-07T00:05:20;3.90;;;3.22;;
37339;SDS011;23223;51.006;7.610;2023-09-07T00:07:46;9.88;;;3.33;;
37339;SDS011;23223;51.006;7.610;2023-09-07T00:10:11;6.60;;;3.10;;
37339;SDS011;23223;51.006;7.610;2023-09-07T00:12:37;6.97;;;3.33;;
37339;SDS011;23223;51.006;7.610;2023-09-07T00:15:04;7.32;;;3.30;;
37339;SDS011;23223;51.006;7.610;2023-09-07T00:17:33;5.18;;;3.60;;
37339;SDS011;23223;51.006;7.610;2023-09-07T00:19:59;6.03;;;3.28;;
37339;SDS011;23223;51.006;7.610;2023-09-07T00:22:25;8.32;;;3.30;;
37339;SDS011;23223;51.006;7.610;2023-09-07T00:24:50;7.78;;;3.30;;
37339;SDS011;23223;51.006;7.610;2023-09-07T00:27:16;4.32;;;3.13;;
37339;SDS011;23223;51.006;7.610;2023-09-07T00:29:42;5.93;;;3.50;;
37339;SDS011;23223;51.006;7.610;2023-09-07T00:32:07;5.10;;;2.95;;
37339;SDS011;23223;51.006;7.610;2023-09-07T00:34:34;4.25;;;3.42;;
37339;SDS011;23223;51.006;7.610;2023-09-07T00:37:00;3.95;;;3.35;;
37339;SDS011;23223;51.006;7.610;2023-09-07T00:39:26;4.45;;;2.97;;
37339;SDS011;23223;51.006;7.610;2023-09-07T00:41:51;7.90;;;2.90;;
37339;SDS011;23223;51.006;7.610;2023-09-07T00:44:17;5.57;;;3.22;;
37339;SDS011;23223;51.006;7.610;2023-09-07T00:46:42;5.75;;;3.20;;
37339;SDS011;23223;51.006;7.610;2023-09-07T00:49:11;5.85;;;3.03;;
37339;SDS011;23223;51.006;7.610;2023-09-07T00:51:37;7.35;;;3.25;;
37339;SDS011;23223;51.006;7.610;2023-09-07T00:54:03;10.10;;;2.97;;
37339;SDS011;23223;51.006;7.610;2023-09-07T00:56:28;5.28;;;3.00;;
37339;SDS011;23223;51.006;7.610;2023-09-07T00:58:54;4.00;;;2.58;;
37339;SDS011;23223;51.006;7.610;2023-09-07T01:01:23;5.57;;;3.40;;
37339;SDS011;23223;51.006;7.610;2023-09-07T01:03:50;6.57;;;2.85;;
37339;SDS011;23223;51.006;7.610;2023-09-07T01:06:17;3.72;;;2.70;;
37339;SDS011;23223;51.006;7.610;2023-09-07T01:08:49;4.60;;;2.80;;
37339;SDS011;23223;51.006;7.610;2023-09-07T01:11:17;5.55;;;2.75;;
37339;SDS011;23223;51.006;7.610;2023-09-07T01:13:47;5.35;;;2.78;;
37339;SDS011;23223;51.006;7.610;2023-09-07T01:16:14;5.55;;;2.83;;
37339;SDS011;23223;51.006;7.610;2023-09-07T01:18:40;6.97;;;3.13;;
37339;SDS011;23223;51.006;7.610;2023-09-07T01:21:07;6.40;;;2.97;;
37339;SDS011;23223;51.006;7.610;2023-09-07T01:23:37;5.93;;;2.50;;
37339;SDS011;23223;51.006;7.610;2023-09-07T01:26:05;4.88;;;2.50;;
37339;SDS011;23223;51.006;7.610;2023-09-07T01:28:32;5.28;;;2.70;;
37339;SDS011;23223;51.006;7.610;2023-09-07T01:30:57;5.15;;;2.80;;
37339;SDS011;23223;51.006;7.610;2023-09-07T01:33:23;6.20;;;2.67;;
37339;SDS011;23223;51.006;7.610;2023-09-07T01:35:49;2.47;;;2.20;;
37339;SDS011;23223;51.006;7.610;2023-09-07T01:38:14;3.60;;;2.85;;
37339;SDS011;23223;51.006;7.610;2023-09-07T01:40:40;4.38;;;2.33;;
37339;SDS011;23223;51.006;7.610;2023-09-07T01:43:05;7.43;;;2.70;;
37339;SDS011;23223;51.006;7.610;2023-09-07T01:45:31;8.85;;;2.45;;
37339;SDS011;23223;51.006;7.610;2023-09-07T01:47:58;4.78;;;3.08;;
37339;SDS011;23223;51.006;7.610;2023-09-07T01:50:24;6.95;;;2.45;;
37339;SDS011;23223;51.006;7.610;2023-09-07T01:52:52;11.70;;;3.08;;
37339;SDS011;23223;51.006;7.610;2023-09-07T01:55:18;7.63;;;2.55;;
37339;SDS011;23223;51.006;7.610;2023-09-07T01:57:44;2.65;;;2.08;;
37339;SDS011;23223;51.006;7.610;2023-09-07T02:00:10;3.67;;;2.42;;
37339;SDS011;23223;51.006;7.610;2023-09-07T02:02:37;13.63;;;3.55;;
37339;SDS011;23223;51.006;7.610;2023-09-07T02:05:03;4.60;;;2.60;;
37339;SDS011;23223;51.006;7.610;2023-09-07T02:07:29;4.45;;;2.83;;
37339;SDS011;23223;51.006;7.610;2023-09-07T02:09:54;3.05;;;2.63;;
37339;SDS011;23223;51.006;7.610;2023-09-07T02:12:20;5.93;;;2.88;;
37339;SDS011;23223;51.006;7.610;2023-09-07T02:14:45;5.13;;;2.53;;
37339;SDS011;23223;51.006;7.610;2023-09-07T02:17:11;3.17;;;2.67;;
37339;SDS011;23223;51.006;7.610;2023-09-07T02:19:42;6.90;;;2.80;;
37339;SDS011;23223;51.006;7.610;2023-09-07T02:22:10;5.90;;;3.33;;
37339;SDS011;23223;51.006;7.610;2023-09-07T02:24:36;2.70;;;2.33;;
37339;SDS011;23223;51.006;7.610;2023-09-07T02:27:02;2.95;;;2.75;;
37339;SDS011;23223;51.006;7.610;2023-09-07T02:29:28;8.38;;;2.90;;
37339;SDS011;23223;51.006;7.610;2023-09-07T02:31:53;5.72;;;2.80;;
37339;SDS011;23223;51.006;7.610;2023-09-07T02:34:19;3.85;;;2.60;;
37339;SDS011;23223;51.006;7.610;2023-09-07T02:36:45;4.55;;;3.10;;
37339;SDS011;23223;51.006;7.610;2023-09-07T02:39:10;6.85;;;2.75;;
37339;SDS011;23223;51.006;7.610;2023-09-07T02:41:36;5.63;;;2.67;;
37339;SDS011;23223;51.006;7.610;2023-09-07T02:44:02;3.38;;;3.05;;
37339;SDS011;23223;51.006;7.610;2023-09-07T02:46:28;4.32;;;2.30;;
37339;SDS011;23223;51.006;7.610;2023-09-07T02:48:54;5.43;;;3.05;;
37339;SDS011;23223;51.006;7.610;2023-09-07T02:51:22;3.15;;;2.47;;
37339;SDS011;23223;51.006;7.610;2023-09-07T02:53:49;5.85;;;3.47;;
37339;SDS011;23223;51.006;7.610;2023-09-07T02:56:15;4.20;;;2.85;;
37339;SDS011;23223;51.006;7.610;2023-09-07T02:58:40;8.32;;;2.55;;
37339;SDS011;23223;51.006;7.610;2023-09-07T03:01:06;6.05;;;3.38;;
37339;SDS011;23223;51.006;7.610;2023-09-07T03:03:35;3.20;;;2.42;;
37339;SDS011;23223;51.006;7.610;2023-09-07T03:06:07;3.20;;;2.90;;
37339;SDS011;23223;51.006;7.610;2023-09-07T03:08:34;3.05;;;2.72;;
37339;SDS011;23223;51.006;7.610;2023-09-07T03:11:02;6.38;;;2.70;;
37339;SDS011;23223;51.006;7.610;2023-09-07T03:13:32;5.30;;;2.97;;
37339;SDS011;23223;51.006;7.610;2023-09-07T03:15:58;3.17;;;2.88;;
37339;SDS011;23223;51.006;7.610;2023-09-07T03:18:24;4.32;;;2.80;;
37339;SDS011;23223;51.006;7.610;2023-09-07T03:20:50;2.80;;;2.28;;
37339;SDS011;23223;51.006;7.610;2023-09-07T03:23:18;2.10;;;1.90;;
37339;SDS011;23223;51.006;7.610;2023-09-07T03:25:44;2.92;;;2.70;;
37339;SDS011;23223;51.006;7.610;2023-09-07T03:28:09;5.70;;;2.90;;
37339;SDS011;23223;51.006;7.610;2023-09-07T03:30:35;3.90;;;2.90;;
37339;SDS011;23223;51.006;7.610;2023-09-07T03:33:00;3.50;;;2.30;;
37339;SDS011;23223;51.006;7.610;2023-09-07T03:35:28;7.95;;;2.60;;
37339;SDS011;23223;51.006;7.610;2023-09-07T03:37:53;6.43;;;2.75;;
37339;SDS011;23223;51.006;7.610;2023-09-07T03:40:19;10.02;;;2.95;;
37339;SDS011;23223;51.006;7.610;2023-09-07T03:42:45;3.10;;;2.65;;
37339;SDS011;23223;51.006;7.610;2023-09-07T03:45:11;6.45;;;2.95;;
37339;SDS011;23223;51.006;7.610;2023-09-07T03:47:37;3.45;;;2.45;;
37339;SDS011;23223;51.006;7.610;2023-09-07T03:50:03;7.20;;;2.47;;
37339;SDS011;23223;51.006;7.610;2023-09-07T03:52:29;4.63;;;2.53;;
37339;SDS011;23223;51.006;7.610;2023-09-07T03:54:55;3.25;;;2.42;;
37339;SDS011;23223;51.006;7.610;2023-09-07T03:57:22;3.78;;;2.80;;
37339;SDS011;23223;51.006;7.610;2023-09-07T03:59:48;4.38;;;2.53;;
37339;SDS011;23223;51.006;7.610;2023-09-07T04:02:14;9.20;;;2.78;;
37339;SDS011;23223;51.006;7.610;2023-09-07T04:04:40;3.38;;;2.97;;
37339;SDS011;23223;51.006;7.610;2023-09-07T04:07:06;6.00;;;2.50;;
37339;SDS011;23223;51.006;7.610;2023-09-07T04:09:31;4.18;;;2.63;;
37339;SDS011;23223;51.006;7.610;2023-09-07T04:11:57;3.35;;;2.60;;
37339;SDS011;23223;51.006;7.610;2023-09-07T04:14:23;3.97;;;2.88;;
37339;SDS011;23223;51.006;7.610;2023-09-07T04:16:48;6.35;;;3.47;;
37339;SDS011;23223;51.006;7.610;2023-09-07T04:19:15;5.50;;;2.97;;
37339;SDS011;23223;51.006;7.610;2023-09-07T04:21:41;4.85;;;3.25;;
37339;SDS011;23223;51.006;7.610;2023-09-07T04:24:06;7.03;;;3.65;;
37339;SDS011;23223;51.006;7.610;2023-09-07T04:26:33;4.90;;;2.92;;
37339;SDS011;23223;51.006;7.610;2023-09-07T04:28:58;5.47;;;3.30;;
37339;SDS011;23223;51.006;7.610;2023-09-07T04:31:24;7.82;;;3.78;;
37339;SDS011;23223;51.006;7.610;2023-09-07T04:33:52;10.45;;;3.47;;
37339;SDS011;23223;51.006;7.610;2023-09-07T04:36:18;8.15;;;4.00;;
37339;SDS011;23223;51.006;7.610;2023-09-07T04:38:44;9.52;;;3.55;;
37339;SDS011;23223;51.006;7.610;2023-09-07T04:41:13;4.57;;;3.15;;
37339;SDS011;23223;51.006;7.610;2023-09-07T04:43:40;8.65;;;3.92;;
37339;SDS011;23223;51.006;7.610;2023-09-07T04:46:08;7.72;;;4.82;;
37339;SDS011;23223;51.006;7.610;2023-09-07T04:48:34;5.50;;;3.92;;
37339;SDS011;23223;51.006;7.610;2023-09-07T04:51:04;7.05;;;4.13;;
37339;SDS011;23223;51.006;7.610;2023-09-07T04:53:31;11.07;;;5.10;;
37339;SDS011;23223;51.006;7.610;2023-09-07T04:55:59;11.95;;;4.80;;
37339;SDS011;23223;51.006;7.610;2023-09-07T04:58:26;7.10;;;3.78;;
37339;SDS011;23223;51.006;7.610;2023-09-07T05:00:52;7.18;;;4.63;;
37339;SDS011;23223;51.006;7.610;2023-09-07T05:03:18;5.82;;;4.80;;
37339;SDS011;23223;51.006;7.610;2023-09-07T05:05:44;10.32;;;4.20;;
37339;SDS011;23223;51.006;7.610;2023-09-07T05:08:10;7.85;;;3.58;;
37339;SDS011;23223;51.006;7.610;2023-09-07T05:10:36;8.25;;;4.00;;
37339;SDS011;23223;51.006;7.610;2023-09-07T05:13:03;9.57;;;4.20;;
37339;SDS011;23223;51.006;7.610;2023-09-07T05:15:29;6.45;;;4.00;;
37339;SDS011;23223;51.006;7.610;2023-09-07T05:17:55;7.20;;;4.10;;
37339;SDS011;23223;51.006;7.610;2023-09-07T05:20:21;7.32;;;4.07;;
37339;SDS011;23223;51.006;7.610;2023-09-07T05:22:47;9.32;;;4.38;;
37339;SDS011;23223;51.006;7.610;2023-09-07T05:25:12;6.55;;;4.18;;
37339;SDS011;23223;51.006;7.610;2023-09-07T05:27:38;7.50;;;3.75;;
37339;SDS011;23223;51.006;7.610;2023-09-07T05:30:04;7.88;;;4.57;;
37339;SDS011;23223;51.006;7.610;2023-09-07T05:32:31;8.68;;;4.38;;
37339;SDS011;23223;51.006;7.610;2023-09-07T05:34:56;6.93;;;3.40;;
37339;SDS011;23223;51.006;7.610;2023-09-07T05:37:22;8.25;;;3.70;;
37339;SDS011;23223;51.006;7.610;2023-09-07T05:39:48;5.63;;;3.80;;
37339;SDS011;23223;51.006;7.610;2023-09-07T05:42:14;6.18;;;3.70;;
37339;SDS011;23223;51.006;7.610;2023-09-07T05:44:39;4.63;;;3.40;;
37339;SDS011;23223;51.006;7.610;2023-09-07T05:47:05;5.15;;;3.80;;
37339;SDS011;23223;51.006;7.610;2023-09-07T05:49:31;8.02;;;3.78;;
37339;SDS011;23223;51.006;7.610;2023-09-07T05:51:56;16.77;;;4.30;;
37339;SDS011;23223;51.006;7.610;2023-09-07T05:54:22;7.45;;;3.95;;
37339;SDS011;23223;51.006;7.610;2023-09-07T05:56:47;5.78;;;4.18;;
37339;SDS011;23223;51.006;7.610;2023-09-07T05:59:13;9.77;;;3.28;;
37339;SDS011;23223;51.006;7.610;2023-09-07T06:01:39;7.20;;;3.42;;
37339;SDS011;23223;51.006;7.610;2023-09-07T06:04:05;7.85;;;4.63;;
37339;SDS011;23223;51.006;7.610;2023-09-07T06:06:31;7.22;;;4.05;;
37339;SDS011;23223;51.006;7.610;2023-09-07T06:08:58;8.75;;;4.15;;
37339;SDS011;23223;51.006;7.610;2023-09-07T06:11:24;6.80;;;3.75;;
37339;SDS011;23223;51.006;7.610;2023-09-07T06:13:50;6.57;;;4.03;;
37339;SDS011;23223;51.006;7.610;2023-09-07T06:16:15;8.32;;;4.30;;
37339;SDS011;23223;51.006;7.610;2023-09-07T06:18:41;6.75;;;3.95;;
37339;SDS011;23223;51.006;7.610;2023-09-07T06:21:07;5.25;;;3.65;;
37339;SDS011;23223;51.006;7.610;2023-09-07T06:23:32;9.60;;;3.90;;
37339;SDS011;23223;51.006;7.610;2023-09-07T06:25:59;9.23;;;4.38;;
37339;SDS011;23223;51.006;7.610;2023-09-07T06:28:25;8.40;;;3.95;;
37339;SDS011;23223;51.006;7.610;2023-09-07T06:30:51;8.30;;;4.03;;
37339;SDS011;23223;51.006;7.610;2023-09-07T06:33:17;9.77;;;3.83;;
37339;SDS011;23223;51.006;7.610;2023-09-07T06:35:43;6.93;;;3.45;;
37339;SDS011;23223;51.006;7.610;2023-09-07T06:38:08;3.75;;;3.00;;
37339;SDS011;23223;51.006;7.610;2023-09-07T06:40:34;4.15;;;3.45;;
37339;SDS011;23223;51.006;7.610;2023-09-07T06:42:59;3.65;;;2.90;;
37339;SDS011;23223;51.006;7.610;2023-09-07T06:45:25;8.80;;;3.78;;
37339;SDS011;23223;51.006;7.610;2023-09-07T06:47:52;7.05;;;3.60;;
37339;SDS011;23223;51.006;7.610;2023-09-07T06:50:17;3.75;;;3.05;;
37339;SDS011;23223;51.006;7.610;2023-09-07T06:52:43;5.80;;;3.58;;
37339;SDS011;23223;51.006;7.610;2023-09-07T06:55:09;5.80;;;3.58;;
37339;SDS011;23223;51.006;7.610;2023-09-07T06:57:34;7.20;;;3.70;;
37339;SDS011;23223;51.006;7.610;2023-09-07T07:00:01;7.85;;;2.90;;
37339;SDS011;23223;51.006;7.610;2023-09-07T07:02:30;6.80;;;2.67;;
37339;SDS011;23223;51.006;7.610;2023-09-07T07:04:56;5.65;;;2.70;;
37339;SDS011;23223;51.006;7.610;2023-09-07T07:07:21;9.65;;;3.33;;
37339;SDS011;23223;51.006;7.610;2023-09-07T07:09:47;8.63;;;4.03;;
37339;SDS011;23223;51.006;7.610;2023-09-07T07:12:12;10.30;;;4.07;;
37339;SDS011;23223;51.006;7.610;2023-09-07T07:14:38;6.18;;;4.20;;
37339;SDS011;23223;51.006;7.610;2023-09-07T07:17:04;9.15;;;4.00;;
37339;SDS011;23223;51.006;7.610;2023-09-07T07:19:30;9.70;;;4.72;;
37339;SDS011;23223;51.006;7.610;2023-09-07T07:21:56;7.03;;;4.10;;
37339;SDS011;23223;51.006;7.610;2023-09-07T07:24:21;11.20;;;4.20;;
37339;SDS011;23223;51.006;7.610;2023-09-07T07:26:47;5.78;;;3.97;;
37339;SDS011;23223;51.006;7.610;2023-09-07T07:29:13;6.47;;;4.03;;
37339;SDS011;23223;51.006;7.610;2023-09-07T07:31:38;8.90;;;3.85;;
37339;SDS011;23223;51.006;7.610;2023-09-07T07:34:04;8.02;;;4.00;;
37339;SDS011;23223;51.006;7.610;2023-09-07T07:36:29;7.07;;;4.03;;
37339;SDS011;23223;51.006;7.610;2023-09-07T07:38:55;5.45;;;4.00;;
37339;SDS011;23223;51.006;7.610;2023-09-07T07:41:21;6.97;;;3.60;;
37339;SDS011;23223;51.006;7.610;2023-09-07T07:43:47;4.53;;;3.58;;
37339;SDS011;23223;51.006;7.610;2023-09-07T07:46:12;6.38;;;3.97;;
37339;SDS011;23223;51.006;7.610;2023-09-07T07:48:41;6.57;;;3.10;;
37339;SDS011;23223;51.006;7.610;2023-09-07T07:51:06;6.50;;;3.65;;
37339;SDS011;23223;51.006;7.610;2023-09-07T07:53:34;3.17;;;2.60;;
37339;SDS011;23223;51.006;7.610;2023-09-07T07:55:59;5.43;;;2.97;;
37339;SDS011;23223;51.006;7.610;2023-09-07T07:58:25;5.18;;;3.10;;
37339;SDS011;23223;51.006;7.610;2023-09-07T08:00:51;5.63;;;2.88;;
37339;SDS011;23223;51.006;7.610;2023-09-07T08:03:17;4.53;;;2.88;;
37339;SDS011;23223;51.006;7.610;2023-09-07T08:05:42;5.22;;;2.88;;
37339;SDS011;23223;51.006;7.610;2023-09-07T08:08:08;5.70;;;3.33;;
37339;SDS011;23223;51.006;7.610;2023-09-07T08:10:34;4.13;;;2.67;;
37339;SDS011;23223;51.006;7.610;2023-09-07T08:13:02;3.22;;;2.45;;
37339;SDS011;23223;51.006;7.610;2023-09-07T08:15:28;3.67;;;2.75;;
37339;SDS011;23223;51.006;7.610;2023-09-07T08:17:54;3.85;;;2.75;;
37339;SDS011;23223;51.006;7.610;2023-09-07T08:20:21;6.25;;;3.47;;
37339;SDS011;23223;51.006;7.610;2023-09-07T08:22:47;5.28;;;3.20;;
37339;SDS011;23223;51.006;7.610;2023-09-07T08:25:12;6.82;;;3.25;;
37339;SDS011;23223;51.006;7.610;2023-09-07T08:27:39;4.85;;;2.90;;
37339;SDS011;23223;51.006;7.610;2023-09-07T08:30:13;11.27;;;3.13;;
37339;SDS011;23223;51.006;7.610;2023-09-07T08:32:40;8.23;;;2.80;;
37339;SDS011;23223;51.006;7.610;2023-09-07T08:35:08;6.65;;;2.67;;
37339;SDS011;23223;51.006;7.610;2023-09-07T08:37:34;4.03;;;2.60;;
37339;SDS011;23223;51.006;7.610;2023-09-07T08:40:00;3.33;;;2.50;;
37339;SDS011;23223;51.006;7.610;2023-09-07T08:42:25;2.88;;;2.53;;
37339;SDS011;23223;51.006;7.610;2023-09-07T08:44:51;4.63;;;3.10;;
37339;SDS011;23223;51.006;7.610;2023-09-07T08:47:23;3.90;;;2.85;;
37339;SDS011;23223;51.006;7.610;2023-09-07T08:49:49;7.68;;;2.80;;
37339;SDS011;23223;51.006;7.610;2023-09-07T08:52:15;5.90;;;3.00;;
37339;SDS011;23223;51.006;7.610;2023-09-07T08:54:42;3.10;;;2.55;;
37339;SDS011;23223;51.006;7.610;2023-09-07T08:57:09;3.55;;;2.38;;
37339;SDS011;23223;51.006;7.610;2023-09-07T08:59:35;7.10;;;2.92;;
37339;SDS011;23223;51.006;7.610;2023-09-07T09:02:01;3.67;;;2.67;;
37339;SDS011;23223;51.006;7.610;2023-09-07T09:04:29;3.63;;;2.78;;
37339;SDS011;23223;51.006;7.610;2023-09-07T09:06:55;3.60;;;2.88;;
37339;SDS011;23223;51.006;7.610;2023-09-07T09:09:24;3.80;;;2.72;;
37339;SDS011;23223;51.006;7.610;2023-09-07T09:11:50;3.35;;;2.50;;
37339;SDS011;23223;51.006;7.610;2023-09-07T09:14:16;6.95;;;2.72;;
37339;SDS011;23223;51.006;7.610;2023-09-07T09:16:54;4.20;;;2.67;;
37339;SDS011;23223;51.006;7.610;2023-09-07T09:19:29;2.90;;;2.55;;
37339;SDS011;23223;51.006;7.610;2023-09-07T09:21:59;3.65;;;2.60;;
37339;SDS011;23223;51.006;7.610;2023-09-07T09:24:25;3.38;;;2.40;;
37339;SDS011;23223;51.006;7.610;2023-09-07T09:26:51;4.97;;;2.67;;
37339;SDS011;23223;51.006;7.610;2023-09-07T09:29:16;3.50;;;3.15;;
37339;SDS011;23223;51.006;7.610;2023-09-07T09:31:47;5.68;;;2.70;;
37339;SDS011;23223;51.006;7.610;2023-09-07T09:34:13;4.32;;;2.80;;
37339;SDS011;23223;51.006;7.610;2023-09-07T09:36:41;5.32;;;2.70;;
37339;SDS011;23223;51.006;7.610;2023-09-07T09:39:08;5.20;;;3.38;;
37339;SDS011;23223;51.006;7.610;2023-09-07T09:41:34;3.50;;;2.60;;
37339;SDS011;23223;51.006;7.610;2023-09-07T09:44:02;4.72;;;2.90;;
37339;SDS011;23223;51.006;7.610;2023-09-07T09:46:28;2.88;;;2.30;;
37339;SDS011;23223;51.006;7.610;2023-09-07T09:48:56;6.18;;;3.00;;
37339;SDS011;23223;51.006;7.610;2023-09-07T09:51:22;5.53;;;2.88;;
37339;SDS011;23223;51.006;7.610;2023-09-07T09:53:49;6.00;;;2.92;;
37339;SDS011;23223;51.006;7.610;2023-09-07T09:56:16;6.47;;;3.30;;
37339;SDS011;23223;51.006;7.610;2023-09-07T09:58:42;3.95;;;2.83;;
37339;SDS011;23223;51.006;7.610;2023-09-07T10:01:08;4.57;;;2.67;;
37339;SDS011;23223;51.006;7.610;2023-09-07T10:03:38;5.63;;;2.92;;
37339;SDS011;23223;51.006;7.610;2023-09-07T10:06:23;3.15;;;2.70;;
37339;SDS011;23223;51.006;7.610;2023-09-07T10:08:53;6.15;;;2.95;;
37339;SDS011;23223;51.006;7.610;2023-09-07T10:11:26;6.40;;;2.00;;
37339;SDS011;23223;51.006;7.610;2023-09-07T10:13:58;2.83;;;2.42;;
37339;SDS011;23223;51.006;7.610;2023-09-07T10:16:24;5.88;;;3.40;;
37339;SDS011;23223;51.006;7.610;2023-09-07T10:18:52;3.53;;;2.88;;
37339;SDS011;23223;51.006;7.610;2023-09-07T10:21:18;4.03;;;2.70;;
37339;SDS011;23223;51.006;7.610;2023-09-07T10:23:44;10.60;;;3.08;;
37339;SDS011;23223;51.006;7.610;2023-09-07T10:26:14;6.97;;;3.03;;
37339;SDS011;23223;51.006;7.610;2023-09-07T10:28:43;4.13;;;2.80;;
37339;SDS011;23223;51.006;7.610;2023-09-07T10:31:13;3.75;;;3.10;;
37339;SDS011;23223;51.006;7.610;2023-09-07T10:33:43;4.47;;;2.50;;
37339;SDS011;23223;51.006;7.610;2023-09-07T10:36:20;3.70;;;2.55;;
37339;SDS011;23223;51.006;7.610;2023-09-07T10:38:54;4.50;;;3.03;;
37339;SDS011;23223;51.006;7.610;2023-09-07T10:41:21;5.68;;;3.13;;
37339;SDS011;23223;51.006;7.610;2023-09-07T10:43:48;4.28;;;2.63;;
37339;SDS011;23223;51.006;7.610;2023-09-07T10:46:18;2.58;;;2.38;;
37339;SDS011;23223;51.006;7.610;2023-09-07T10:48:45;5.00;;;3.00;;
37339;SDS011;23223;51.006;7.610;2023-09-07T10:51:13;5.13;;;3.40;;
37339;SDS011;23223;51.006;7.610;2023-09-07T10:53:39;4.03;;;2.88;;
37339;SDS011;23223;51.006;7.610;2023-09-07T10:56:05;3.58;;;3.10;;
37339;SDS011;23223;51.006;7.610;2023-09-07T10:58:32;6.72;;;2.85;;
37339;SDS011;23223;51.006;7.610;2023-09-07T11:00:59;4.85;;;3.08;;
37339;SDS011;23223;51.006;7.610;2023-09-07T11:03:25;2.90;;;2.70;;
37339;SDS011;23223;51.006;7.610;2023-09-07T11:05:55;3.65;;;2.83;;
37339;SDS011;23223;51.006;7.610;2023-09-07T11:08:25;3.10;;;2.80;;
37339;SDS011;23223;51.006;7.610;2023-09-07T11:10:51;3.85;;;2.55;;
37339;SDS011;23223;51.006;7.610;2023-09-07T11:13:17;4.55;;;2.50;;
37339;SDS011;23223;51.006;7.610;2023-09-07T11:15:43;4.88;;;3.65;;
37339;SDS011;23223;51.006;7.610;2023-09-07T11:18:09;7.20;;;2.83;;
37339;SDS011;23223;51.006;7.610;2023-09-07T11:20:35;5.32;;;3.25;;
37339;SDS011;23223;51.006;7.610;2023-09-07T11:23:01;4.40;;;3.35;;
37339;SDS011;23223;51.006;7.610;2023-09-07T11:42:06;2.90;;;2.70;;
37339;SDS011;23223;51.006;7.610;2023-09-07T11:44:32;5.10;;;2.75;;
37339;SDS011;23223;51.006;7.610;2023-09-07T11:46:58;8.70;;;2.60;;
37339;SDS011;23223;51.006;7.610;2023-09-07T11:49:23;4.40;;;2.88;;
37339;SDS011;23223;51.006;7.610;2023-09-07T11:51:49;3.17;;;2.40;;
37339;SDS011;23223;51.006;7.610;2023-09-07T11:54:15;5.22;;;2.90;;
37339;SDS011;23223;51.006;7.610;2023-09-07T11:56:41;4.68;;;3.03;;
37339;SDS011;23223;51.006;7.610;2023-09-07T11:59:08;4.10;;;2.65;;
37339;SDS011;23223;51.006;7.610;2023-09-07T12:01:34;3.90;;;2.75;;
37339;SDS011;23223;51.006;7.610;2023-09-07T12:04:00;4.45;;;2.90;;
37339;SDS011;23223;51.006;7.610;2023-09-07T12:06:26;4.30;;;2.40;;
37339;SDS011;23223;51.006;7.610;2023-09-07T12:09:02;2.75;;;2.47;;
37339;SDS011;23223;51.006;7.610;2023-09-07T12:11:29;3.38;;;2.47;;
37339;SDS011;23223;51.006;7.610;2023-09-07T12:13:55;4.65;;;2.80;;
37339;SDS011;23223;51.006;7.610;2023-09-07T12:16:21;3.13;;;2.75;;
37339;SDS011;23223;51.006;7.610;2023-09-07T12:18:47;3.83;;;3.17;;
37339;SDS011;23223;51.006;7.610;2023-09-07T12:21:13;4.22;;;2.97;;
37339;SDS011;23223;51.006;7.610;2023-09-07T12:23:41;5.35;;;2.70;;
37339;SDS011;23223;51.006;7.610;2023-09-07T12:26:07;4.20;;;2.60;;
37339;SDS011;23223;51.006;7.610;2023-09-07T12:28:33;7.82;;;2.90;;
37339;SDS011;23223;51.006;7.610;2023-09-07T12:30:59;7.13;;;3.00;;
37339;SDS011;23223;51.006;7.610;2023-09-07T12:33:25;2.78;;;2.58;;
37339;SDS011;23223;51.006;7.610;2023-09-07T12:35:51;3.72;;;2.78;;
37339;SDS011;23223;51.006;7.610;2023-09-07T12:38:17;3.83;;;3.10;;
37339;SDS011;23223;51.006;7.610;2023-09-07T12:40:45;3.97;;;3.08;;
37339;SDS011;23223;51.006;7.610;2023-09-07T12:43:10;3.40;;;2.80;;
37339;SDS011;23223;51.006;7.610;2023-09-07T12:45:36;2.88;;;2.67;;
37339;SDS011;23223;51.006;7.610;2023-09-07T12:48:01;3.00;;;2.40;;
37339;SDS011;23223;51.006;7.610;2023-09-07T12:50:27;5.43;;;2.72;;
37339;SDS011;23223;51.006;7.610;2023-09-07T12:52:53;3.65;;;2.63;;
37339;SDS011;23223;51.006;7.610;2023-09-07T12:55:21;3.63;;;2.67;;
37339;SDS011;23223;51.006;7.610;2023-09-07T12:57:47;8.57;;;3.00;;
37339;SDS011;23223;51.006;7.610;2023-09-07T13:00:13;5.15;;;3.30;;
37339;SDS011;23223;51.006;7.610;2023-09-07T13:02:39;2.88;;;2.58;;
37339;SDS011;23223;51.006;7.610;2023-09-07T13:05:04;10.93;;;3.90;;
37339;SDS011;23223;51.006;7.610;2023-09-07T13:07:31;3.15;;;2.83;;
37339;SDS011;23223;51.006;7.610;2023-09-07T13:10:04;3.97;;;2.90;;
37339;SDS011;23223;51.006;7.610;2023-09-07T13:12:33;3.92;;;2.78;;
37339;SDS011;23223;51.006;7.610;2023-09-07T13:14:58;6.22;;;2.80;;
37339;SDS011;23223;51.006;7.610;2023-09-07T13:17:24;3.58;;;3.17;;
37339;SDS011;23223;51.006;7.610;2023-09-07T13:19:50;3.33;;;2.90;;
37339;SDS011;23223;51.006;7.610;2023-09-07T13:22:16;3.67;;;3.20;;
37339;SDS011;23223;51.006;7.610;2023-09-07T13:24:42;2.85;;;2.60;;
37339;SDS011;23223;51.006;7.610;2023-09-07T13:27:08;5.78;;;3.03;;
37339;SDS011;23223;51.006;7.610;2023-09-07T13:29:35;3.28;;;2.72;;
37339;SDS011;23223;51.006;7.610;2023-09-07T13:32:01;3.03;;;2.72;;
37339;SDS011;23223;51.006;7.610;2023-09-07T13:34:27;4.72;;;2.85;;
37339;SDS011;23223;51.006;7.610;2023-09-07T13:36:53;3.45;;;2.83;;
37339;SDS011;23223;51.006;7.610;2023-09-07T13:39:19;3.22;;;2.92;;
37339;SDS011;23223;51.006;7.610;2023-09-07T13:41:45;3.28;;;2.67;;
37339;SDS011;23223;51.006;7.610;2023-09-07T13:44:11;3.92;;;2.42;;
37339;SDS011;23223;51.006;7.610;2023-09-07T13:46:39;3.00;;;2.65;;
37339;SDS011;23223;51.006;7.610;2023-09-07T13:49:04;3.40;;;2.83;;
37339;SDS011;23223;51.006;7.610;2023-09-07T13:51:30;3.67;;;3.03;;
37339;SDS011;23223;51.006;7.610;2023-09-07T13:54:03;3.60;;;3.10;;
37339;SDS011;23223;51.006;7.610;2023-09-07T13:56:30;5.63;;;2.78;;
37339;SDS011;23223;51.006;7.610;2023-09-07T13:58:56;5.45;;;3.25;;
37339;SDS011;23223;51.006;7.610;2023-09-07T14:01:22;4.40;;;3.20;;
37339;SDS011;23223;51.006;7.610;2023-09-07T14:03:49;3.22;;;2.92;;
37339;SDS011;23223;51.006;7.610;2023-09-07T14:06:14;3.80;;;3.08;;
37339;SDS011;23223;51.006;7.610;2023-09-07T14:08:42;3.08;;;2.78;;
37339;SDS011;23223;51.006;7.610;2023-09-07T14:11:09;4.47;;;2.72;;
37339;SDS011;23223;51.006;7.610;2023-09-07T14:13:34;6.70;;;2.92;;
37339;SDS011;23223;51.006;7.610;2023-09-07T14:16:00;3.55;;;2.63;;
37339;SDS011;23223;51.006;7.610;2023-09-07T14:18:26;5.13;;;2.95;;
37339;SDS011;23223;51.006;7.610;2023-09-07T14:20:52;5.35;;;3.50;;
37339;SDS011;23223;51.006;7.610;2023-09-07T14:23:18;3.97;;;2.63;;
37339;SDS011;23223;51.006;7.610;2023-09-07T14:25:46;4.18;;;2.75;;
37339;SDS011;23223;51.006;7.610;2023-09-07T14:28:12;5.60;;;2.78;;
37339;SDS011;23223;51.006;7.610;2023-09-07T14:30:39;5.15;;;2.60;;
37339;SDS011;23223;51.006;7.610;2023-09-07T14:33:05;3.70;;;2.85;;
37339;SDS011;23223;51.006;7.610;2023-09-07T14:35:31;3.53;;;3.00;;
37339;SDS011;23223;51.006;7.610;2023-09-07T14:37:57;5.22;;;3.10;;
37339;SDS011;23223;51.006;7.610;2023-09-07T14:40:22;3.85;;;2.70;;
37339;SDS011;23223;51.006;7.610;2023-09-07T14:42:49;3.15;;;2.70;;
37339;SDS011;23223;51.006;7.610;2023-09-07T14:45:15;3.80;;;2.55;;
37339;SDS011;23223;51.006;7.610;2023-09-07T14:47:42;6.07;;;3.15;;
37339;SDS011;23223;51.006;7.610;2023-09-07T14:50:08;5.57;;;3.00;;
37339;SDS011;23223;51.006;7.610;2023-09-07T14:52:34;4.45;;;2.90;;
37339;SDS011;23223;51.006;7.610;2023-09-07T14:55:05;3.05;;;2.75;;
37339;SDS011;23223;51.006;7.610;2023-09-07T14:57:32;4.72;;;3.20;;
37339;SDS011;23223;51.006;7.610;2023-09-07T14:59:57;6.75;;;2.90;;